No particular awareness of the weather is required.   -   There are no Weather-warnings

Nearby METAR Reports

 

LEZL - Sevilla, Spain
Distance from station: ENE 8km
Updated: 21/10/2018 20:30
Clear
Clear
 Wind from NE
Wind: NE 9 km/h
Temperature: 20°C
Dew Point: 17°C
Humidity: 83%
Barometer: 1018 hPa
Summary: Clear
Visibility: greater than 10 km
2018/10/21 18:30 LEZL 211830Z 04005KT CAVOK 20/17 Q1018 NOSIG
LEMO - Morón, Spain
Distance from station: SE 43km
Updated: 21/10/2018 21:00
Clear
Clear
 Wind from N
Wind: N 6 km/h
Temperature: 18°C
Dew Point: 16°C
Humidity: 88%
Barometer: 1018 hPa
Summary: Clear
Visibility: greater than 10 km
2018/10/21 19:00 LEMO 211900Z 01003KT CAVOK 18/16 Q1018 NOSIG
LEJR - Jeréz, Spain
Distance from station: S 71km
Updated: 21/10/2018 21:00
Partly cloudy
Partly cloudy
 Wind from calm
Wind: Calm
Temperature: 19°C
Dew Point: 16°C
Humidity: 83%
Barometer: 1017 hPa
Clouds: Partly cloudy
Visibility: 10 km
Cloud details: Few Clouds 305 m
Partly cloudy 1372 m
2018/10/21 19:00 LEJR 211900Z 00000KT 9999 FEW010 SCT045 19/16 Q1017
 
LERT - Rota, Spain
Distance from station: SSW 89km
Updated: 21/10/2018 21:00
Few Clouds
Few Clouds
 Wind from calm
Wind: Calm
Temperature: 19°C
Dew Point: 16°C
Humidity: 83%
Barometer: 1017 hPa
Clouds: Few Clouds
Visibility: 10 km
Cloud details: Few Clouds 1006 m
2018/10/21 19:00 LERT 211900Z 00000KT 9999 FEW033 19/16 Q1017 NOSIG
LEMG - Málaga, Spain
Distance from station: ESE 157km
Updated: 21/10/2018 21:00
Mostly cloudy
Mostly cloudy
 Wind from WNW
Wind: WNW 11 km/h
Temperature: 20°C
Dew Point: 16°C
Humidity: 78%
Barometer: 1018 hPa
Clouds: Mostly cloudy
Visibility: 10 km
Cloud details: Few Clouds 762 m
Mostly cloudy 1067 m
2018/10/21 19:00 LEMG 211900Z 30006KT 9999 FEW025 BKN035 20/16 Q1018 NOSIG
LEBA - Córdoba, Spain
Distance from station: ENE 115km
Updated: 21/10/2018 21:00
Nearby thunderstorm, Light rain, Showers, Thunderstorm
Nearby thunderstorm, Light rain, Showers, Thunderstorm
 Wind from N
Wind: N 6 km/h
Temperature: 18°C
Dew Point: 17°C
Humidity: 94%
Barometer: 1018 hPa
Summary: Nearby thunderstorm, Light rain, Showers
Clouds: Thunderstorm
Visibility: 10 km
2018/10/21 19:00 LEBA 211900Z AUTO 36003KT 300V040 9999 VCTS -SHRA ///CB 18/17 Q1018
 
LEGR - Granada, Spain
Distance from station: E 198km
Updated: 21/10/2018 21:00
Partly cloudy
Partly cloudy
 Wind from calm
Wind: Calm
Temperature: 17°C
Dew Point: 15°C
Humidity: 88%
Barometer: 1020 hPa
Clouds: Partly cloudy
Visibility: 10 km
Cloud details: Few Clouds 1219 m
Partly cloudy 1829 m
2018/10/21 19:00 LEGR 211900Z 00000KT 9999 FEW040 SCT060 17/15 Q1020
LEAM - Almería, Spain
Distance from station: E 326km
Updated: 21/10/2018 21:00
Clear
Clear
 Wind from ENE
Wind: ENE 19 km/h
Temperature: 22°C
Dew Point: 17°C
Humidity: 73%
Barometer: 1017 hPa
Summary: Clear
Visibility: greater than 10 km
2018/10/21 19:00 LEAM 211900Z 07010KT CAVOK 22/17 Q1017
LEMD - Madrid/Barajas, Spain
Distance from station: NNE 402km
Updated: 21/10/2018 21:00
Clear
Clear
 Wind from NW
Wind: NW 6 km/h
Temperature: 17°C
Dew Point: 14°C
Humidity: 83%
Barometer: 1021 hPa
Summary: Clear
Visibility: greater than 10 km
2018/10/21 19:00 LEMD 211900Z 31003KT CAVOK 17/14 Q1021 NOSIG
 
LEVD - Valladolid, Spain
Distance from station: N 492km
Updated: 21/10/2018 21:00
Clear
Clear
 Wind from varies
Wind: varies 4 km/h
Temperature: 14°C
Dew Point: 7°C
Humidity: 63%
Barometer: 1022 hPa
Summary: Clear
Visibility: greater than 10 km
2018/10/21 19:00 LEVD 211900Z VRB02KT CAVOK 14/07 Q1022
LEBL - Barcelona, Spain
Distance from station: NE 816km
Updated: 21/10/2018 21:00
Clear
Clear
 Wind from WSW
Wind: WSW 17 km/h
Temperature: 19°C
Dew Point: 17°C
Humidity: 88%
Barometer: 1018 hPa
Summary: Clear
Visibility: greater than 10 km
2018/10/21 19:00 LEBL 211900Z 24009KT CAVOK 19/17 Q1018 NOSIG
LEVC - Valencia, Spain
Distance from station: ENE 535km
Updated: 21/10/2018 21:00
Few Clouds
Few Clouds
 Wind from S
Wind: S 4 km/h
Temperature: 20°C
Dew Point: 18°C
Humidity: 88%
Barometer: 1019 hPa
Clouds: Few Clouds
Visibility: 10 km
Cloud details: Few Clouds 610 m
2018/10/21 19:00 LEVC 211900Z 19002KT 9999 FEW020 20/18 Q1019 NOSIG